sensor_id;sensor_type;location;lat;lon;timestamp;pressure;altitude;pressure_sealevel;temperature;humidity
22649;BME280;11491;41.942;24.220;2023-05-22T00:00:11;89726.03;;;11.53;100.00
22649;BME280;11491;41.942;24.220;2023-05-22T00:02:38;89724.31;;;11.64;99.97
22649;BME280;11491;41.942;24.220;2023-05-22T00:05:07;89715.88;;;11.62;99.74
22649;BME280;11491;41.942;24.220;2023-05-22T00:07:37;89724.47;;;11.71;99.89
22649;BME280;11491;41.942;24.220;2023-05-22T00:10:05;89722.63;;;11.75;99.59
22649;BME280;11491;41.942;24.220;2023-05-22T00:12:32;89729.53;;;11.76;99.45
22649;BME280;11491;41.942;24.220;2023-05-22T00:14:58;89727.69;;;11.80;98.57
22649;BME280;11491;41.942;24.220;2023-05-22T00:17:25;89713.94;;;11.82;97.98
22649;BME280;11491;41.942;24.220;2023-05-22T00:19:55;89718.94;;;11.83;97.81
22649;BME280;11491;41.942;24.220;2023-05-22T00:22:27;89710.34;;;11.74;97.81
22649;BME280;11491;41.942;24.220;2023-05-22T00:24:57;89703.13;;;11.55;98.09
22649;BME280;11491;41.942;24.220;2023-05-22T00:27:24;89706.16;;;11.54;97.70
22649;BME280;11491;41.942;24.220;2023-05-22T00:29:51;89713.63;;;11.45;98.18
22649;BME280;11491;41.942;24.220;2023-05-22T00:32:17;89708.63;;;11.43;98.45
22649;BME280;11491;41.942;24.220;2023-05-22T00:34:44;89708.13;;;11.37;98.27
22649;BME280;11491;41.942;24.220;2023-05-22T00:37:11;89709.81;;;11.46;97.85
22649;BME280;11491;41.942;24.220;2023-05-22T00:39:38;89705.03;;;11.35;97.62
22649;BME280;11491;41.942;24.220;2023-05-22T00:42:06;89708.41;;;11.32;96.88
22649;BME280;11491;41.942;24.220;2023-05-22T00:44:33;89709.09;;;11.29;96.53
22649;BME280;11491;41.942;24.220;2023-05-22T00:46:59;89708.69;;;11.27;95.90
22649;BME280;11491;41.942;24.220;2023-05-22T00:49:26;89712.34;;;11.19;95.91
22649;BME280;11491;41.942;24.220;2023-05-22T00:51:53;89712.97;;;11.12;95.88
22649;BME280;11491;41.942;24.220;2023-05-22T00:54:20;89712.75;;;11.02;95.98
22649;BME280;11491;41.942;24.220;2023-05-22T00:56:47;89714.88;;;11.12;94.83
22649;BME280;11491;41.942;24.220;2023-05-22T00:59:16;89708.25;;;11.06;94.59
22649;BME280;11491;41.942;24.220;2023-05-22T01:01:43;89715.53;;;10.89;96.14
22649;BME280;11491;41.942;24.220;2023-05-22T01:04:10;89705.63;;;10.90;96.71
22649;BME280;11491;41.942;24.220;2023-05-22T01:06:39;89701.69;;;10.84;97.28
22649;BME280;11491;41.942;24.220;2023-05-22T01:09:06;89711.06;;;10.93;97.95
22649;BME280;11491;41.942;24.220;2023-05-22T01:11:41;89698.53;;;10.97;98.14
22649;BME280;11491;41.942;24.220;2023-05-22T01:14:22;89702.59;;;10.91;97.49
22649;BME280;11491;41.942;24.220;2023-05-22T01:16:55;89712.56;;;10.75;98.69
22649;BME280;11491;41.942;24.220;2023-05-22T01:19:43;89710.59;;;10.72;98.60
22649;BME280;11491;41.942;24.220;2023-05-22T01:22:29;89708.50;;;10.81;98.73
22649;BME280;11491;41.942;24.220;2023-05-22T01:25:24;89704.72;;;10.66;99.47
22649;BME280;11491;41.942;24.220;2023-05-22T01:28:08;89704.63;;;10.63;100.00
22649;BME280;11491;41.942;24.220;2023-05-22T01:30:49;89700.16;;;10.67;100.00
22649;BME280;11491;41.942;24.220;2023-05-22T01:33:17;89688.31;;;10.68;100.00
22649;BME280;11491;41.942;24.220;2023-05-22T01:35:48;89694.03;;;10.66;100.00
22649;BME280;11491;41.942;24.220;2023-05-22T01:38:18;89690.72;;;10.73;100.00
22649;BME280;11491;41.942;24.220;2023-05-22T01:40:46;89682.44;;;10.78;100.00
22649;BME280;11491;41.942;24.220;2023-05-22T01:43:14;89687.94;;;10.85;100.00
22649;BME280;11491;41.942;24.220;2023-05-22T01:45:41;89683.44;;;10.89;100.00
22649;BME280;11491;41.942;24.220;2023-05-22T01:48:09;89695.41;;;10.95;99.51
22649;BME280;11491;41.942;24.220;2023-05-22T01:50:36;89683.28;;;10.82;100.00
22649;BME280;11491;41.942;24.220;2023-05-22T01:53:09;89693.53;;;10.96;100.00
22649;BME280;11491;41.942;24.220;2023-05-22T01:55:41;89687.97;;;11.05;100.00
22649;BME280;11491;41.942;24.220;2023-05-22T01:58:15;89682.28;;;11.06;100.00
22649;BME280;11491;41.942;24.220;2023-05-22T02:00:46;89668.53;;;11.08;99.99
22649;BME280;11491;41.942;24.220;2023-05-22T02:03:17;89683.09;;;11.10;99.43
22649;BME280;11491;41.942;24.220;2023-05-22T02:05:46;89684.25;;;11.09;99.97
22649;BME280;11491;41.942;24.220;2023-05-22T02:08:16;89679.22;;;11.08;99.75
22649;BME280;11491;41.942;24.220;2023-05-22T02:10:43;89683.19;;;11.14;98.97
22649;BME280;11491;41.942;24.220;2023-05-22T02:13:11;89677.84;;;11.14;98.67
22649;BME280;11491;41.942;24.220;2023-05-22T02:15:38;89676.84;;;11.03;99.31
22649;BME280;11491;41.942;24.220;2023-05-22T02:18:09;89681.09;;;11.04;99.84
22649;BME280;11491;41.942;24.220;2023-05-22T02:20:38;89679.94;;;11.05;100.00
22649;BME280;11491;41.942;24.220;2023-05-22T02:23:05;89678.41;;;11.04;100.00
22649;BME280;11491;41.942;24.220;2023-05-22T02:25:32;89673.06;;;11.04;99.14
22649;BME280;11491;41.942;24.220;2023-05-22T02:27:58;89683.75;;;11.04;100.00
22649;BME280;11491;41.942;24.220;2023-05-22T02:30:25;89686.97;;;11.13;99.15
22649;BME280;11491;41.942;24.220;2023-05-22T02:32:52;89679.22;;;11.08;99.08
22649;BME280;11491;41.942;24.220;2023-05-22T02:35:19;89680.72;;;11.05;99.72
22649;BME280;11491;41.942;24.220;2023-05-22T02:37:47;89683.97;;;11.14;99.94
22649;BME280;11491;41.942;24.220;2023-05-22T02:40:13;89677.13;;;11.17;99.54
22649;BME280;11491;41.942;24.220;2023-05-22T02:42:40;89674.88;;;11.19;98.14
22649;BME280;11491;41.942;24.220;2023-05-22T02:45:08;89683.63;;;11.16;98.50
22649;BME280;11491;41.942;24.220;2023-05-22T02:47:35;89691.38;;;11.21;98.59
22649;BME280;11491;41.942;24.220;2023-05-22T02:50:03;89693.34;;;11.24;98.32
22649;BME280;11491;41.942;24.220;2023-05-22T02:52:30;89686.97;;;11.13;99.34
22649;BME280;11491;41.942;24.220;2023-05-22T02:54:58;89690.22;;;11.22;99.14
22649;BME280;11491;41.942;24.220;2023-05-22T02:57:25;89685.75;;;11.26;98.99
22649;BME280;11491;41.942;24.220;2023-05-22T02:59:52;89689.81;;;11.20;99.28
22649;BME280;11491;41.942;24.220;2023-05-22T03:02:18;89687.22;;;11.24;99.26
22649;BME280;11491;41.942;24.220;2023-05-22T03:04:45;89688.69;;;11.21;98.88
22649;BME280;11491;41.942;24.220;2023-05-22T03:07:12;89686.59;;;11.11;99.23
22649;BME280;11491;41.942;24.220;2023-05-22T03:09:39;89687.06;;;11.16;98.75
22649;BME280;11491;41.942;24.220;2023-05-22T03:12:08;89686.84;;;11.25;97.72
22649;BME280;11491;41.942;24.220;2023-05-22T03:14:35;89688.13;;;11.31;97.15
22649;BME280;11491;41.942;24.220;2023-05-22T03:17:02;89688.53;;;11.14;97.92
22649;BME280;11491;41.942;24.220;2023-05-22T03:19:29;89690.09;;;11.15;98.99
22649;BME280;11491;41.942;24.220;2023-05-22T03:21:55;89683.25;;;11.17;98.38
22649;BME280;11491;41.942;24.220;2023-05-22T03:24:22;89682.78;;;11.12;98.46
22649;BME280;11491;41.942;24.220;2023-05-22T03:26:49;89677.41;;;11.12;99.01
22649;BME280;11491;41.942;24.220;2023-05-22T03:29:17;89652.38;;;11.01;99.10
22649;BME280;11491;41.942;24.220;2023-05-22T03:31:44;89684.06;;;11.18;99.32
22649;BME280;11491;41.942;24.220;2023-05-22T03:34:10;89694.09;;;11.25;99.65
22649;BME280;11491;41.942;24.220;2023-05-22T03:36:37;89688.00;;;11.24;99.55
22649;BME280;11491;41.942;24.220;2023-05-22T03:39:05;89697.97;;;11.27;99.66
22649;BME280;11491;41.942;24.220;2023-05-22T03:41:32;89690.22;;;11.22;99.92
22649;BME280;11491;41.942;24.220;2023-05-22T03:43:59;89687.28;;;11.27;99.97
22649;BME280;11491;41.942;24.220;2023-05-22T03:46:27;89690.53;;;11.36;99.52
22649;BME280;11491;41.942;24.220;2023-05-22T03:48:53;89691.84;;;11.27;99.41
22649;BME280;11491;41.942;24.220;2023-05-22T03:51:20;89694.31;;;11.16;100.00
22649;BME280;11491;41.942;24.220;2023-05-22T03:53:47;89695.88;;;11.17;100.00
22649;BME280;11491;41.942;24.220;2023-05-22T03:56:14;89697.97;;;11.27;100.00
22649;BME280;11491;41.942;24.220;2023-05-22T03:58:41;89691.66;;;11.16;100.00
22649;BME280;11491;41.942;24.220;2023-05-22T04:01:07;89691.91;;;11.30;100.00
22649;BME280;11491;41.942;24.220;2023-05-22T04:03:37;89692.06;;;11.37;99.30
22649;BME280;11491;41.942;24.220;2023-05-22T04:06:04;89697.56;;;11.45;99.29
22649;BME280;11491;41.942;24.220;2023-05-22T04:08:31;89699.69;;;11.35;99.47
22649;BME280;11491;41.942;24.220;2023-05-22T04:10:58;89696.03;;;11.43;99.53
22649;BME280;11491;41.942;24.220;2023-05-22T04:13:26;89698.41;;;11.49;98.90
22649;BME280;11491;41.942;24.220;2023-05-22T04:15:52;89683.59;;;11.55;99.54
22649;BME280;11491;41.942;24.220;2023-05-22T04:18:21;89692.63;;;11.66;98.96
22649;BME280;11491;41.942;24.220;2023-05-22T04:20:49;89695.84;;;11.75;99.20
22649;BME280;11491;41.942;24.220;2023-05-22T04:23:16;89687.53;;;11.80;99.37
22649;BME280;11491;41.942;24.220;2023-05-22T04:25:43;89690.75;;;11.90;99.13
22649;BME280;11491;41.942;24.220;2023-05-22T04:28:12;89696.66;;;11.99;98.95
22649;BME280;11491;41.942;24.220;2023-05-22T04:30:42;89700.31;;;12.10;98.77
22649;BME280;11491;41.942;24.220;2023-05-22T04:33:08;89700.38;;;12.14;98.98
22649;BME280;11491;41.942;24.220;2023-05-22T04:35:36;89705.22;;;12.27;97.67
22649;BME280;11491;41.942;24.220;2023-05-22T04:38:06;89701.50;;;12.36;95.43
22649;BME280;11491;41.942;24.220;2023-05-22T04:40:33;89711.63;;;12.46;94.72
22649;BME280;11491;41.942;24.220;2023-05-22T04:43:02;89696.13;;;12.36;94.79
22649;BME280;11491;41.942;24.220;2023-05-22T04:45:28;89701.63;;;12.43;94.88
22649;BME280;11491;41.942;24.220;2023-05-22T04:47:55;89704.00;;;12.48;94.78
22649;BME280;11491;41.942;24.220;2023-05-22T04:50:22;89706.38;;;12.53;95.72
22649;BME280;11491;41.942;24.220;2023-05-22T04:52:49;89703.38;;;12.58;95.63
22649;BME280;11491;41.942;24.220;2023-05-22T04:55:17;89705.00;;;12.63;96.35
22649;BME280;11491;41.942;24.220;2023-05-22T04:57:44;89696.69;;;12.71;95.55
22649;BME280;11491;41.942;24.220;2023-05-22T05:00:12;89695.97;;;12.75;94.36
22649;BME280;11491;41.942;24.220;2023-05-22T05:02:40;89700.63;;;12.78;95.55
22649;BME280;11491;41.942;24.220;2023-05-22T05:05:07;89701.84;;;12.84;94.88
22649;BME280;11491;41.942;24.220;2023-05-22T05:07:36;89706.22;;;12.96;94.38
22649;BME280;11491;41.942;24.220;2023-05-22T05:10:06;89712.47;;;13.03;94.23
22649;BME280;11491;41.942;24.220;2023-05-22T05:12:34;89707.31;;;13.18;93.66
22649;BME280;11491;41.942;24.220;2023-05-22T05:15:02;89702.16;;;13.32;92.33
22649;BME280;11491;41.942;24.220;2023-05-22T05:17:29;89706.03;;;13.34;86.90
22649;BME280;11491;41.942;24.220;2023-05-22T05:19:56;89701.84;;;13.37;86.61
22649;BME280;11491;41.942;24.220;2023-05-22T05:22:23;89717.81;;;13.56;86.44
22649;BME280;11491;41.942;24.220;2023-05-22T05:24:50;89700.25;;;13.66;86.76
22649;BME280;11491;41.942;24.220;2023-05-22T05:27:17;89710.06;;;13.85;85.82
22649;BME280;11491;41.942;24.220;2023-05-22T05:29:46;89716.00;;;14.02;85.65
22649;BME280;11491;41.942;24.220;2023-05-22T05:32:12;89710.75;;;14.16;85.17
22649;BME280;11491;41.942;24.220;2023-05-22T05:34:39;89714.66;;;14.22;80.39
22649;BME280;11491;41.942;24.220;2023-05-22T05:37:06;89693.78;;;14.08;81.57
22649;BME280;11491;41.942;24.220;2023-05-22T05:39:33;89711.66;;;14.31;82.68
22649;BME280;11491;41.942;24.220;2023-05-22T05:42:00;89718.63;;;14.35;80.37
22649;BME280;11491;41.942;24.220;2023-05-22T05:44:26;89713.72;;;14.04;81.14
22649;BME280;11491;41.942;24.220;2023-05-22T05:46:55;89714.50;;;14.04;81.64
22649;BME280;11491;41.942;24.220;2023-05-22T05:49:22;89716.03;;;14.05;82.44
22649;BME280;11491;41.942;24.220;2023-05-22T05:51:49;89706.88;;;14.10;83.43
22649;BME280;11491;41.942;24.220;2023-05-22T05:54:15;89719.22;;;14.18;81.17
22649;BME280;11491;41.942;24.220;2023-05-22T05:56:42;89721.19;;;14.21;79.79
22649;BME280;11491;41.942;24.220;2023-05-22T05:59:09;89722.47;;;14.34;79.15
22649;BME280;11491;41.942;24.220;2023-05-22T06:01:36;89724.75;;;14.32;81.49
22649;BME280;11491;41.942;24.220;2023-05-22T06:04:05;89729.38;;;14.35;81.29
22649;BME280;11491;41.942;24.220;2023-05-22T06:06:33;89706.94;;;14.17;80.83
22649;BME280;11491;41.942;24.220;2023-05-22T06:09:00;89731.19;;;14.24;81.22
22649;BME280;11491;41.942;24.220;2023-05-22T06:11:27;89720.81;;;14.22;80.33
22649;BME280;11491;41.942;24.220;2023-05-22T06:13:55;89732.06;;;14.35;80.89
22649;BME280;11491;41.942;24.220;2023-05-22T06:16:23;89734.06;;;14.42;79.12
22649;BME280;11491;41.942;24.220;2023-05-22T06:18:50;89729.50;;;14.46;79.18
22649;BME280;11491;41.942;24.220;2023-05-22T06:21:18;89741.03;;;14.47;75.31
22649;BME280;11491;41.942;24.220;2023-05-22T06:23:46;89742.38;;;14.67;76.19
22649;BME280;11491;41.942;24.220;2023-05-22T06:26:14;89732.19;;;14.91;77.54
22649;BME280;11491;41.942;24.220;2023-05-22T06:28:41;89727.03;;;15.26;73.90
22649;BME280;11491;41.942;24.220;2023-05-22T06:31:08;89738.78;;;15.63;74.72
22649;BME280;11491;41.942;24.220;2023-05-22T06:33:34;89729.56;;;15.64;71.35
22649;BME280;11491;41.942;24.220;2023-05-22T06:36:02;89712.16;;;15.47;69.04
22649;BME280;11491;41.942;24.220;2023-05-22T06:38:30;89725.66;;;15.50;64.69
22649;BME280;11491;41.942;24.220;2023-05-22T06:40:57;89727.41;;;15.25;67.18
22649;BME280;11491;41.942;24.220;2023-05-22T06:46:04;89699.25;;;15.12;69.60
22649;BME280;11491;41.942;24.220;2023-05-22T06:48:33;89656.03;;;14.86;71.22
22649;BME280;11491;41.942;24.220;2023-05-22T06:51:00;89663.19;;;15.23;71.20
22649;BME280;11491;41.942;24.220;2023-05-22T06:53:27;89707.22;;;15.63;70.71
22649;BME280;11491;41.942;24.220;2023-05-22T06:55:57;89705.72;;;15.69;71.01
22649;BME280;11491;41.942;24.220;2023-05-22T06:58:24;89655.47;;;15.18;70.07
22649;BME280;11491;41.942;24.220;2023-05-22T07:00:51;89651.72;;;14.71;68.74
22649;BME280;11491;41.942;24.220;2023-05-22T07:03:18;89667.66;;;14.50;67.42
22649;BME280;11491;41.942;24.220;2023-05-22T07:05:45;89742.16;;;14.46;69.90
22649;BME280;11491;41.942;24.220;2023-05-22T07:08:12;89763.13;;;14.29;73.27
22649;BME280;11491;41.942;24.220;2023-05-22T07:10:39;89758.44;;;14.22;74.74
22649;BME280;11491;41.942;24.220;2023-05-22T07:13:08;89734.16;;;13.78;74.30
22649;BME280;11491;41.942;24.220;2023-05-22T07:15:35;89695.97;;;13.28;76.14
22649;BME280;11491;41.942;24.220;2023-05-22T07:18:02;89689.56;;;13.09;78.71
22649;BME280;11491;41.942;24.220;2023-05-22T07:20:30;89701.16;;;13.17;79.49
22649;BME280;11491;41.942;24.220;2023-05-22T07:22:57;89696.56;;;13.18;80.78
22649;BME280;11491;41.942;24.220;2023-05-22T07:25:24;89697.00;;;12.93;82.36
22649;BME280;11491;41.942;24.220;2023-05-22T07:27:50;89722.88;;;12.82;84.16
22649;BME280;11491;41.942;24.220;2023-05-22T07:30:18;89681.97;;;12.62;85.42
22649;BME280;11491;41.942;24.220;2023-05-22T07:32:45;89773.97;;;13.15;86.07
22649;BME280;11491;41.942;24.220;2023-05-22T07:35:12;89747.44;;;12.84;86.76
22649;BME280;11491;41.942;24.220;2023-05-22T07:37:39;89764.78;;;13.17;86.17
22649;BME280;11491;41.942;24.220;2023-05-22T07:40:07;89708.34;;;12.83;86.11
22649;BME280;11491;41.942;24.220;2023-05-22T07:42:34;89711.25;;;12.97;86.17
22649;BME280;11491;41.942;24.220;2023-05-22T07:45:01;89718.03;;;13.18;85.68
22649;BME280;11491;41.942;24.220;2023-05-22T07:47:29;89709.38;;;13.28;83.91
22649;BME280;11491;41.942;24.220;2023-05-22T07:49:55;89712.25;;;13.42;83.66
22649;BME280;11491;41.942;24.220;2023-05-22T07:52:22;89773.47;;;13.93;82.93
22649;BME280;11491;41.942;24.220;2023-05-22T07:54:49;89706.56;;;13.81;82.08
22649;BME280;11491;41.942;24.220;2023-05-22T07:57:16;89749.44;;;14.41;80.65
22649;BME280;11491;41.942;24.220;2023-05-22T07:59:42;89770.00;;;15.08;81.18
22649;BME280;11491;41.942;24.220;2023-05-22T08:02:09;89702.97;;;14.93;71.00
22649;BME280;11491;41.942;24.220;2023-05-22T08:04:38;89766.41;;;15.49;72.76
22649;BME280;11491;41.942;24.220;2023-05-22T08:07:04;89780.25;;;15.44;68.56
22649;BME280;11491;41.942;24.220;2023-05-22T08:09:31;89775.69;;;15.55;70.68
22649;BME280;11491;41.942;24.220;2023-05-22T08:11:58;89773.72;;;15.48;68.63
22649;BME280;11491;41.942;24.220;2023-05-22T08:14:25;89763.31;;;15.47;69.44
22649;BME280;11491;41.942;24.220;2023-05-22T08:16:52;89744.69;;;15.20;69.04
22649;BME280;11491;41.942;24.220;2023-05-22T08:19:18;89768.59;;;15.25;72.62
22649;BME280;11491;41.942;24.220;2023-05-22T08:21:47;89771.59;;;15.20;71.72
22649;BME280;11491;41.942;24.220;2023-05-22T08:24:13;89769.53;;;14.96;71.71
22649;BME280;11491;41.942;24.220;2023-05-22T08:26:40;89768.38;;;14.97;73.14
22649;BME280;11491;41.942;24.220;2023-05-22T08:29:07;89768.84;;;15.06;72.44
22649;BME280;11491;41.942;24.220;2023-05-22T08:31:34;89767.06;;;15.28;73.89
22649;BME280;11491;41.942;24.220;2023-05-22T08:34:01;89782.44;;;15.24;73.92
22649;BME280;11491;41.942;24.220;2023-05-22T08:36:29;89779.38;;;15.33;74.47
22649;BME280;11491;41.942;24.220;2023-05-22T08:38:59;89771.34;;;15.40;73.29
22649;BME280;11491;41.942;24.220;2023-05-22T08:41:26;89780.91;;;15.30;70.90
22649;BME280;11491;41.942;24.220;2023-05-22T08:43:53;89774.75;;;15.29;74.42
22649;BME280;11491;41.942;24.220;2023-05-22T08:46:22;89768.59;;;15.25;72.90
22649;BME280;11491;41.942;24.220;2023-05-22T08:48:50;89771.00;;;15.45;72.51
22649;BME280;11491;41.942;24.220;2023-05-22T08:51:18;89769.53;;;15.55;71.51
22649;BME280;11491;41.942;24.220;2023-05-22T08:53:50;89766.63;;;15.81;76.08
22649;BME280;11491;41.942;24.220;2023-05-22T08:56:19;89763.69;;;16.22;74.50
22649;BME280;11491;41.942;24.220;2023-05-22T08:58:46;89755.69;;;16.47;67.94
22649;BME280;11491;41.942;24.220;2023-05-22T09:01:16;89758.38;;;16.47;72.82
22649;BME280;11491;41.942;24.220;2023-05-22T09:03:44;89756.84;;;16.53;68.15
22649;BME280;11491;41.942;24.220;2023-05-22T09:06:13;89750.66;;;16.49;69.56
22649;BME280;11491;41.942;24.220;2023-05-22T09:08:40;89747.56;;;16.36;71.30
22649;BME280;11491;41.942;24.220;2023-05-22T09:11:07;89739.03;;;16.24;66.27
22649;BME280;11491;41.942;24.220;2023-05-22T09:13:38;89743.53;;;15.87;66.16
22649;BME280;11491;41.942;24.220;2023-05-22T09:16:07;89745.53;;;16.01;70.62
22649;BME280;11491;41.942;24.220;2023-05-22T09:18:35;89748.28;;;16.15;71.36
22649;BME280;11491;41.942;24.220;2023-05-22T09:21:03;89745.25;;;16.35;69.63
22649;BME280;11491;41.942;24.220;2023-05-22T09:23:30;89753.00;;;16.58;68.07
22649;BME280;11491;41.942;24.220;2023-05-22T09:25:58;89755.28;;;16.45;67.94
22649;BME280;11491;41.942;24.220;2023-05-22T09:28:25;89749.41;;;16.14;68.75
22649;BME280;11491;41.942;24.220;2023-05-22T09:30:54;89744.03;;;16.22;68.60
22649;BME280;11491;41.942;24.220;2023-05-22T09:33:22;89748.31;;;16.23;69.73
22649;BME280;11491;41.942;24.220;2023-05-22T09:35:50;89736.00;;;16.43;69.54
22649;BME280;11491;41.942;24.220;2023-05-22T09:38:17;89753.84;;;17.16;72.02
22649;BME280;11491;41.942;24.220;2023-05-22T09:40:44;89732.88;;;17.77;67.20
22649;BME280;11491;41.942;24.220;2023-05-22T09:43:16;89734.34;;;18.07;65.75
22649;BME280;11491;41.942;24.220;2023-05-22T09:45:43;89744.47;;;17.78;62.45
22649;BME280;11491;41.942;24.220;2023-05-22T09:48:15;89738.38;;;17.38;63.04
22649;BME280;11491;41.942;24.220;2023-05-22T09:50:46;89741.47;;;16.79;63.11
22649;BME280;11491;41.942;24.220;2023-05-22T09:53:15;89712.09;;;16.38;65.01
22649;BME280;11491;41.942;24.220;2023-05-22T09:55:43;89742.91;;;16.37;64.29
22649;BME280;11491;41.942;24.220;2023-05-22T09:58:12;89746.38;;;16.27;66.66
22649;BME280;11491;41.942;24.220;2023-05-22T10:00:42;89748.28;;;16.15;68.28
22649;BME280;11491;41.942;24.220;2023-05-22T10:03:10;89744.41;;;16.13;67.99
22649;BME280;11491;41.942;24.220;2023-05-22T10:05:44;89752.91;;;16.15;69.86
22649;BME280;11491;41.942;24.220;2023-05-22T10:08:13;89745.94;;;16.10;70.12
22649;BME280;11491;41.942;24.220;2023-05-22T10:10:46;89752.84;;;16.04;69.98
22649;BME280;11491;41.942;24.220;2023-05-22T10:13:16;89752.06;;;16.00;68.25
22649;BME280;11491;41.942;24.220;2023-05-22T10:15:43;89755.94;;;16.06;69.69
22649;BME280;11491;41.942;24.220;2023-05-22T10:18:10;89745.19;;;16.13;68.12
22649;BME280;11491;41.942;24.220;2023-05-22T10:20:38;89753.69;;;16.23;69.49
22649;BME280;11491;41.942;24.220;2023-05-22T10:23:07;89746.00;;;16.32;67.76
22649;BME280;11491;41.942;24.220;2023-05-22T10:25:36;89738.31;;;16.41;68.48
22649;BME280;11491;41.942;24.220;2023-05-22T10:28:04;89754.53;;;16.45;69.54
22649;BME280;11491;41.942;24.220;2023-05-22T10:30:35;89745.25;;;16.39;65.87
22649;BME280;11491;41.942;24.220;2023-05-22T10:33:06;89741.41;;;16.43;66.75
22649;BME280;11491;41.942;24.220;2023-05-22T10:35:39;89740.59;;;16.32;68.29
22649;BME280;11491;41.942;24.220;2023-05-22T10:38:21;89743.59;;;15.98;68.96
22649;BME280;11491;41.942;24.220;2023-05-22T10:40:51;89741.22;;;15.89;69.79
22649;BME280;11491;41.942;24.220;2023-05-22T10:43:21;89750.50;;;15.99;70.53
22649;BME280;11491;41.942;24.220;2023-05-22T10:45:48;89751.28;;;16.00;70.06
22649;BME280;11491;41.942;24.220;2023-05-22T10:48:20;89742.06;;;16.04;70.61
22649;BME280;11491;41.942;24.220;2023-05-22T10:50:50;89747.13;;;16.24;69.88
22649;BME280;11491;41.942;24.220;2023-05-22T10:53:22;89742.13;;;16.19;69.54
22649;BME280;11491;41.942;24.220;2023-05-22T10:55:50;89747.56;;;16.33;70.32
22649;BME280;11491;41.942;24.220;2023-05-22T10:58:23;89747.56;;;16.33;67.96
22649;BME280;11491;41.942;24.220;2023-05-22T11:01:07;89742.13;;;16.26;68.21
22649;BME280;11491;41.942;24.220;2023-05-22T11:03:55;89737.91;;;16.39;67.70
22649;BME280;11491;41.942;24.220;2023-05-22T11:06:36;89739.13;;;16.60;68.00
22649;BME280;11491;41.942;24.220;2023-05-22T11:09:20;89732.22;;;16.84;64.82
22649;BME280;11491;41.942;24.220;2023-05-22T11:12:16;89719.13;;;17.04;67.06
22649;BME280;11491;41.942;24.220;2023-05-22T11:14:49;89722.16;;;17.45;61.79
22649;BME280;11491;41.942;24.220;2023-05-22T11:17:16;89713.63;;;17.57;62.59
22649;BME280;11491;41.942;24.220;2023-05-22T11:19:48;89712.81;;;17.75;62.96
22649;BME280;11491;41.942;24.220;2023-05-22T11:22:22;89708.56;;;17.70;61.50
22649;BME280;11491;41.942;24.220;2023-05-22T11:24:50;89705.94;;;17.49;58.06
22649;BME280;11491;41.942;24.220;2023-05-22T11:27:17;89719.44;;;17.41;60.11
22649;BME280;11491;41.942;24.220;2023-05-22T11:29:44;89709.88;;;17.12;60.59
22649;BME280;11491;41.942;24.220;2023-05-22T11:32:11;89708.69;;;16.91;60.95
22649;BME280;11491;41.942;24.220;2023-05-22T11:34:45;89706.75;;;16.60;62.98
22649;BME280;11491;41.942;24.220;2023-05-22T11:37:14;89709.44;;;16.56;62.85
22649;BME280;11491;41.942;24.220;2023-05-22T11:39:47;89704.41;;;16.54;63.90
22649;BME280;11491;41.942;24.220;2023-05-22T11:42:17;89702.47;;;16.51;63.71
22649;BME280;11491;41.942;24.220;2023-05-22T11:44:43;89709.84;;;16.65;63.59
22649;BME280;11491;41.942;24.220;2023-05-22T11:47:10;89706.38;;;16.79;61.28
22649;BME280;11491;41.942;24.220;2023-05-22T11:49:39;89704.81;;;16.71;61.21
22649;BME280;11491;41.942;24.220;2023-05-22T11:52:06;89713.72;;;16.82;61.61
22649;BME280;11491;41.942;24.220;2023-05-22T11:54:33;89693.66;;;16.83;57.26
22649;BME280;11491;41.942;24.220;2023-05-22T11:57:03;89700.59;;;16.98;57.74
22649;BME280;11491;41.942;24.220;2023-05-22T11:59:31;89689.00;;;17.16;55.96
22649;BME280;11491;41.942;24.220;2023-05-22T12:01:58;89696.66;;;17.46;55.03
22649;BME280;11491;41.942;24.220;2023-05-22T12:04:25;89696.22;;;17.69;56.52
22649;BME280;11491;41.942;24.220;2023-05-22T12:06:52;89693.91;;;17.82;54.18
22649;BME280;11491;41.942;24.220;2023-05-22T12:09:19;89695.03;;;17.77;54.96
22649;BME280;11491;41.942;24.220;2023-05-22T12:11:47;89685.41;;;17.73;54.67
22649;BME280;11491;41.942;24.220;2023-05-22T12:14:13;89688.88;;;17.66;53.93
22649;BME280;11491;41.942;24.220;2023-05-22T12:16:42;89697.47;;;17.47;53.29
22649;BME280;11491;41.942;24.220;2023-05-22T12:19:10;89691.31;;;17.25;56.29
22649;BME280;11491;41.942;24.220;2023-05-22T12:21:37;89694.00;;;17.21;55.97
22649;BME280;11491;41.942;24.220;2023-05-22T12:24:06;89709.09;;;17.08;56.17
22649;BME280;11491;41.942;24.220;2023-05-22T12:26:34;89707.94;;;16.94;57.99
22649;BME280;11491;41.942;24.220;2023-05-22T12:29:01;89705.25;;;16.87;59.32
22649;BME280;11491;41.942;24.220;2023-05-22T12:31:33;89711.41;;;16.84;59.47
22649;BME280;11491;41.942;24.220;2023-05-22T12:34:03;89702.91;;;16.68;59.03
22649;BME280;11491;41.942;24.220;2023-05-22T12:36:31;89705.19;;;16.66;58.13
22649;BME280;11491;41.942;24.220;2023-05-22T12:38:59;89701.72;;;16.69;60.89
22649;BME280;11491;41.942;24.220;2023-05-22T12:41:26;89700.59;;;16.70;58.75
22649;BME280;11491;41.942;24.220;2023-05-22T12:43:52;89696.38;;;16.90;59.61
22649;BME280;11491;41.942;24.220;2023-05-22T12:46:19;89696.75;;;16.99;59.26
22649;BME280;11491;41.942;24.220;2023-05-22T12:48:46;89699.06;;;17.08;57.36
22649;BME280;11491;41.942;24.220;2023-05-22T12:51:14;89699.84;;;17.05;59.02
22649;BME280;11491;41.942;24.220;2023-05-22T12:53:41;89702.53;;;17.01;57.84
22649;BME280;11491;41.942;24.220;2023-05-22T12:56:07;89682.88;;;16.97;58.28
22649;BME280;11491;41.942;24.220;2023-05-22T12:58:34;89692.50;;;16.77;58.67